createdAt,value
2022-12-13T00:01:33.450Z,-3.70
2022-12-13T00:04:05.685Z,-3.60
2022-12-13T00:06:34.150Z,-3.60
2022-12-13T00:09:02.804Z,-3.70
2022-12-13T00:11:30.759Z,-3.70
2022-12-13T00:13:59.285Z,-3.70
2022-12-13T00:16:27.901Z,-3.70
2022-12-13T00:18:58.340Z,-3.70
2022-12-13T00:21:29.965Z,-3.80
2022-12-13T00:23:58.346Z,-3.70
2022-12-13T00:26:28.727Z,-3.70
2022-12-13T00:28:57.384Z,-3.70
2022-12-13T00:31:56.642Z,-3.80
2022-12-13T00:34:15.843Z,-3.70
2022-12-13T00:36:45.159Z,-3.90
2022-12-13T00:39:14.224Z,-3.80
2022-12-13T00:41:42.098Z,-3.80
2022-12-13T00:44:12.339Z,-3.90
2022-12-13T00:46:40.999Z,-3.80
2022-12-13T00:49:11.496Z,-3.90
2022-12-13T00:51:39.973Z,-3.90
2022-12-13T00:54:09.172Z,-3.90
2022-12-13T00:56:38.927Z,-3.90
2022-12-13T00:59:06.980Z,-3.90
2022-12-13T01:01:36.986Z,-3.80
2022-12-13T01:04:06.876Z,-3.90
2022-12-13T01:06:38.659Z,-4.00
2022-12-13T01:09:10.926Z,-4.00
2022-12-13T01:11:38.814Z,-4.00
2022-12-13T01:14:06.668Z,-4.00
2022-12-13T01:16:34.528Z,-4.10
2022-12-13T01:19:02.448Z,-4.10
2022-12-13T01:21:33.186Z,-4.00
2022-12-13T01:24:04.844Z,-4.00
2022-12-13T01:26:34.885Z,-4.00
2022-12-13T01:29:05.269Z,-4.00
2022-12-13T01:31:33.128Z,-4.00
2022-12-13T01:34:01.036Z,-4.10
2022-12-13T01:36:28.836Z,-4.10
2022-12-13T01:38:58.568Z,-4.10
2022-12-13T01:41:28.065Z,-4.10
2022-12-13T01:44:00.909Z,-4.10
2022-12-13T01:46:29.141Z,-4.10
2022-12-13T01:49:04.015Z,-4.20
2022-12-13T01:51:36.471Z,-4.20
2022-12-13T01:54:06.952Z,-4.20
2022-12-13T01:56:38.727Z,-4.20
2022-12-13T01:59:09.541Z,-4.20
2022-12-13T02:01:37.882Z,-4.40
2022-12-13T02:04:08.553Z,-4.30
2022-12-13T02:06:39.771Z,-4.30
2022-12-13T02:09:09.100Z,-4.20
2022-12-13T02:11:39.698Z,-4.30
2022-12-13T02:14:09.848Z,-4.30
2022-12-13T02:16:46.918Z,-4.40
2022-12-13T02:19:46.626Z,-4.40
2022-12-13T02:22:30.976Z,-4.50
2022-12-13T02:25:18.750Z,-4.40
2022-12-13T02:28:30.677Z,-4.30
2022-12-13T02:31:09.043Z,-4.40
2022-12-13T02:33:45.693Z,-4.40
2022-12-13T02:36:20.030Z,-4.60
2022-12-13T02:38:54.031Z,-4.60
2022-12-13T02:41:27.883Z,-4.60
2022-12-13T02:44:01.403Z,-4.60
2022-12-13T02:46:36.476Z,-4.60
2022-12-13T02:49:05.551Z,-4.60
2022-12-13T02:51:33.937Z,-4.60
2022-12-13T02:54:01.779Z,-4.60
2022-12-13T02:56:29.545Z,-4.70
2022-12-13T02:58:59.738Z,-4.70
2022-12-13T03:01:41.484Z,-4.70
2022-12-13T03:04:23.432Z,-4.60
2022-12-13T03:07:03.751Z,-4.60
2022-12-13T03:09:41.254Z,-4.70
2022-12-13T03:12:38.898Z,-4.70
2022-12-13T03:15:16.884Z,-4.70
2022-12-13T03:17:50.999Z,-4.70
2022-12-13T03:20:23.736Z,-4.80
2022-12-13T03:22:52.291Z,-4.80
2022-12-13T03:25:30.889Z,-4.80
2022-12-13T03:28:02.517Z,-4.70
2022-12-13T03:30:31.299Z,-4.80
2022-12-13T03:33:00.879Z,-4.80
2022-12-13T03:35:35.081Z,-4.80
2022-12-13T03:38:22.182Z,-4.80
2022-12-13T03:40:54.517Z,-4.80
2022-12-13T03:43:23.118Z,-4.90
2022-12-13T03:45:51.769Z,-5.00
2022-12-13T03:48:23.216Z,-4.90
2022-12-13T03:50:52.434Z,-4.80
2022-12-13T03:53:22.869Z,-4.90
2022-12-13T03:56:01.602Z,-4.90
2022-12-13T03:58:34.804Z,-4.90
2022-12-13T04:01:06.298Z,-4.80
2022-12-13T04:03:35.927Z,-4.80
2022-12-13T04:06:03.895Z,-4.90
2022-12-13T04:08:31.881Z,-4.80
2022-12-13T04:10:59.848Z,-4.80
2022-12-13T04:13:32.563Z,-5.00
2022-12-13T04:16:00.558Z,-4.90
2022-12-13T04:18:28.749Z,-5.00
2022-12-13T04:20:58.316Z,-4.90
2022-12-13T04:23:26.142Z,-5.10
2022-12-13T04:25:54.087Z,-5.20
2022-12-13T04:28:22.951Z,-5.10
2022-12-13T04:30:53.340Z,-5.10
2022-12-13T04:33:22.073Z,-5.00
2022-12-13T04:35:50.204Z,-5.10
2022-12-13T04:38:19.420Z,-5.10
2022-12-13T04:40:47.471Z,-5.00
2022-12-13T04:43:15.286Z,-5.10
2022-12-13T04:45:43.228Z,-5.10
2022-12-13T04:48:11.105Z,-5.10
2022-12-13T04:50:38.887Z,-5.20
2022-12-13T04:53:06.699Z,-5.20
2022-12-13T04:55:37.795Z,-5.20
2022-12-13T04:58:05.626Z,-5.20
2022-12-13T05:00:33.405Z,-5.20
2022-12-13T05:03:01.172Z,-5.20
2022-12-13T05:05:29.077Z,-5.20
2022-12-13T05:07:57.003Z,-5.20
2022-12-13T05:10:32.044Z,-5.40
2022-12-13T05:13:05.443Z,-5.50
2022-12-13T05:15:33.616Z,-5.30
2022-12-13T05:18:09.957Z,-5.30
2022-12-13T05:20:39.347Z,-5.30
2022-12-13T05:23:07.646Z,-5.30
2022-12-13T05:25:36.677Z,-5.30
2022-12-13T05:28:08.828Z,-5.30
2022-12-13T05:30:39.217Z,-5.40
2022-12-13T05:33:07.018Z,-5.40
2022-12-13T05:35:34.855Z,-5.40
2022-12-13T05:38:02.761Z,-5.40
2022-12-13T05:40:32.205Z,-5.50
2022-12-13T05:43:01.547Z,-5.50
2022-12-13T05:45:31.856Z,-5.50
2022-12-13T05:48:00.023Z,-5.60
2022-12-13T05:50:27.847Z,-5.60
2022-12-13T05:52:55.701Z,-5.60
2022-12-13T05:55:23.695Z,-5.50
2022-12-13T05:57:51.702Z,-5.50
2022-12-13T06:00:30.440Z,-5.50
2022-12-13T06:03:01.771Z,-5.50
2022-12-13T06:05:30.213Z,-5.60
2022-12-13T06:07:59.177Z,-5.70
2022-12-13T06:10:35.006Z,-5.60
2022-12-13T06:13:21.837Z,-5.70
2022-12-13T06:16:01.690Z,-5.70
2022-12-13T06:18:32.455Z,-5.70
2022-12-13T06:21:02.382Z,-5.70
2022-12-13T06:23:32.164Z,-5.70
2022-12-13T06:26:00.235Z,-5.70
2022-12-13T06:28:28.123Z,-5.80
2022-12-13T06:30:55.945Z,-5.70
2022-12-13T06:33:24.459Z,-7.10
2022-12-13T06:35:56.768Z,-7.60
2022-12-13T06:38:31.918Z,-6.80
2022-12-13T06:41:11.077Z,-6.20
2022-12-13T06:43:39.093Z,-6.00
2022-12-13T06:46:07.142Z,-6.00
2022-12-13T06:48:37.013Z,-6.00
2022-12-13T06:51:06.687Z,-5.90
2022-12-13T06:53:36.342Z,-5.90
2022-12-13T06:56:05.668Z,-6.20
2022-12-13T06:58:33.661Z,-6.60
2022-12-13T07:01:06.998Z,-6.30
2022-12-13T07:03:43.533Z,-6.50
2022-12-13T07:06:15.281Z,-6.80
2022-12-13T07:08:44.342Z,-7.90
2022-12-13T07:11:15.604Z,-9.40
2022-12-13T07:13:43.613Z,-8.70
2022-12-13T07:16:12.262Z,-8.20
2022-12-13T07:18:40.669Z,-7.90
2022-12-13T07:21:10.382Z,-8.00
2022-12-13T07:23:55.059Z,-9.10
2022-12-13T07:26:23.993Z,-8.30
2022-12-13T07:28:55.411Z,-9.20
2022-12-13T07:31:24.505Z,-8.90
2022-12-13T07:33:53.009Z,-7.60
2022-12-13T07:36:22.787Z,-8.70
2022-12-13T07:38:54.932Z,-9.30
2022-12-13T07:41:23.217Z,-8.30
2022-12-13T07:43:54.838Z,-7.60
2022-12-13T07:46:31.892Z,-7.10
2022-12-13T07:49:02.386Z,-6.60
2022-12-13T07:51:30.296Z,-7.90
2022-12-13T07:54:00.625Z,-7.90
2022-12-13T07:56:28.452Z,-7.10
2022-12-13T07:58:56.226Z,-7.70
2022-12-13T08:01:24.122Z,-8.70
2022-12-13T08:03:52.105Z,-8.40
2022-12-13T08:06:20.180Z,-7.70
2022-12-13T08:08:50.680Z,-6.50
2022-12-13T08:11:19.760Z,-6.60
2022-12-13T08:13:47.496Z,-6.60
2022-12-13T08:16:28.439Z,-6.20
2022-12-13T08:19:02.225Z,-7.00
2022-12-13T08:24:24.053Z,-7.20
2022-12-13T08:26:53.298Z,-7.60
2022-12-13T08:29:23.177Z,-6.50
2022-12-13T08:32:02.213Z,-7.30
2022-12-13T08:34:31.488Z,-6.00
2022-12-13T08:37:01.747Z,-6.00
2022-12-13T08:39:34.405Z,-5.90
2022-12-13T08:42:15.920Z,-7.20
2022-12-13T08:44:46.851Z,-7.30
2022-12-13T08:47:22.875Z,-7.30
2022-12-13T08:49:53.958Z,-7.80
2022-12-13T08:52:23.534Z,-8.10
2022-12-13T08:54:51.396Z,-7.70
2022-12-13T08:57:20.523Z,-7.60
2022-12-13T08:59:48.319Z,-7.90
2022-12-13T09:02:16.997Z,-7.70
2022-12-13T09:04:45.544Z,-6.80
2022-12-13T09:07:13.476Z,-6.20
2022-12-13T09:09:41.320Z,-6.00
2022-12-13T09:12:10.793Z,-6.70
2022-12-13T09:15:01.234Z,-6.40
2022-12-13T09:17:36.575Z,-6.10
2022-12-13T09:20:10.202Z,-6.20
2022-12-13T09:23:02.073Z,-6.90
2022-12-13T09:25:37.239Z,-6.80
2022-12-13T09:28:07.115Z,-6.60
2022-12-13T09:30:36.702Z,-7.20
2022-12-13T09:33:18.260Z,-6.50
2022-12-13T09:35:52.931Z,-6.40
2022-12-13T09:38:20.794Z,-7.30
2022-12-13T09:40:58.411Z,-7.20
2022-12-13T09:43:33.839Z,-6.80
2022-12-13T09:46:26.726Z,-7.20
2022-12-13T09:49:05.505Z,-6.00
2022-12-13T09:51:47.324Z,-6.80
2022-12-13T09:54:21.987Z,-6.60
2022-12-13T09:56:51.510Z,-6.90
2022-12-13T09:59:22.385Z,-7.50
2022-12-13T10:01:51.769Z,-7.20
2022-12-13T10:04:20.083Z,-6.90
2022-12-13T10:06:48.140Z,-7.00
2022-12-13T10:09:16.128Z,-7.00
2022-12-13T10:11:51.338Z,-6.90
2022-12-13T10:14:26.171Z,-6.70
2022-12-13T10:16:58.884Z,-6.40
2022-12-13T10:19:33.879Z,-6.40
2022-12-13T10:22:03.255Z,-6.80
2022-12-13T10:24:48.127Z,-6.50
2022-12-13T10:27:18.098Z,-6.50
2022-12-13T10:30:07.519Z,-5.90
2022-12-13T10:32:53.935Z,-6.00
2022-12-13T10:35:27.228Z,-6.80
2022-12-13T10:37:59.579Z,-6.30
2022-12-13T10:40:35.379Z,-6.20
2022-12-13T10:43:14.662Z,-6.70
2022-12-13T10:45:43.477Z,-6.90
2022-12-13T10:48:22.004Z,-6.40
2022-12-13T10:51:01.599Z,-5.80
2022-12-13T10:53:32.260Z,-6.40
2022-12-13T10:56:02.447Z,-6.20
2022-12-13T10:58:38.805Z,-4.80
2022-12-13T11:01:21.882Z,-5.30
2022-12-13T11:04:02.455Z,-6.10
2022-12-13T11:06:43.171Z,-5.70
2022-12-13T11:09:22.796Z,-6.00
2022-12-13T11:11:58.577Z,-6.20
2022-12-13T11:14:31.975Z,-5.30
2022-12-13T11:17:06.449Z,-5.40
2022-12-13T11:19:39.980Z,-4.40
2022-12-13T11:22:09.535Z,-4.80
2022-12-13T11:24:39.616Z,-5.60
2022-12-13T11:27:26.500Z,-5.20
2022-12-13T11:30:10.439Z,-5.80
2022-12-13T11:33:01.641Z,-4.80
2022-12-13T11:35:51.495Z,-6.00
2022-12-13T11:38:29.492Z,-6.20
2022-12-13T11:41:03.911Z,-5.30
2022-12-13T11:43:38.619Z,-5.20
2022-12-13T11:46:15.641Z,-5.60
2022-12-13T11:48:47.998Z,-5.60
2022-12-13T11:51:29.020Z,-5.90
2022-12-13T11:54:00.830Z,-6.00
2022-12-13T11:56:32.544Z,-5.20
2022-12-13T11:59:19.186Z,-5.40
2022-12-13T12:01:55.576Z,-5.40
2022-12-13T12:04:33.740Z,-5.60
2022-12-13T12:07:31.096Z,-5.10
2022-12-13T12:10:06.535Z,-5.50
2022-12-13T12:12:36.279Z,-5.60
2022-12-13T12:15:16.185Z,-5.00
2022-12-13T12:17:44.917Z,-5.60
2022-12-13T12:20:23.861Z,-6.00
2022-12-13T12:23:05.604Z,-6.10
2022-12-13T12:25:43.578Z,-5.30
2022-12-13T12:28:20.053Z,-5.70
2022-12-13T12:30:54.763Z,-5.60
2022-12-13T12:33:32.436Z,-5.80
2022-12-13T12:36:12.787Z,-5.60
2022-12-13T12:39:03.014Z,-5.60
2022-12-13T12:41:45.228Z,-6.00
2022-12-13T12:44:23.311Z,-6.00
2022-12-13T12:47:32.661Z,-6.10
2022-12-13T12:50:31.064Z,-5.90
2022-12-13T12:53:12.174Z,-6.10
2022-12-13T12:55:51.440Z,-5.90
2022-12-13T12:58:28.513Z,-5.60
2022-12-13T13:01:11.013Z,-5.60
2022-12-13T13:03:41.395Z,-5.80
2022-12-13T13:06:13.531Z,-6.10
2022-12-13T13:08:50.158Z,-6.10
2022-12-13T13:11:26.029Z,-5.90
2022-12-13T13:14:08.146Z,-5.90
2022-12-13T13:16:38.770Z,-6.10
2022-12-13T13:19:27.268Z,-6.00
2022-12-13T13:22:01.990Z,-6.10
2022-12-13T13:24:31.717Z,-6.00
2022-12-13T13:27:19.225Z,-5.90
2022-12-13T13:29:47.167Z,-6.10
2022-12-13T13:32:40.557Z,-6.10
2022-12-13T13:35:51.021Z,-6.00
2022-12-13T13:38:52.182Z,-6.10
2022-12-13T13:42:08.883Z,-5.80
2022-12-13T13:45:06.511Z,-6.00
2022-12-13T13:47:41.835Z,-6.10
2022-12-13T13:50:55.232Z,-6.00
2022-12-13T13:54:08.796Z,-6.00
2022-12-13T13:58:07.136Z,-5.80
2022-12-13T14:00:18.653Z,-5.80
2022-12-13T14:03:29.359Z,-6.00
2022-12-13T14:06:33.792Z,-6.00
2022-12-13T14:09:30.686Z,-6.10
2022-12-13T14:12:34.072Z,-5.90
2022-12-13T14:15:28.323Z,-6.20
2022-12-13T14:18:26.742Z,-6.10
2022-12-13T14:21:06.539Z,-6.10
2022-12-13T14:23:46.123Z,-6.10
2022-12-13T14:26:42.076Z,-6.00
2022-12-13T14:29:15.230Z,-5.90
2022-12-13T14:31:45.296Z,-6.00
2022-12-13T14:34:22.507Z,-6.00
2022-12-13T14:36:56.981Z,-6.00
2022-12-13T14:39:29.256Z,-6.00
2022-12-13T14:41:58.787Z,-5.90
2022-12-13T14:44:28.472Z,-6.10
2022-12-13T14:46:59.686Z,-6.10
2022-12-13T14:49:29.806Z,-6.10
2022-12-13T14:52:01.525Z,-6.20
2022-12-13T14:54:47.093Z,-6.10
2022-12-13T14:57:18.134Z,-6.20
2022-12-13T14:59:50.727Z,-6.10
2022-12-13T15:02:31.058Z,-6.20
2022-12-13T15:05:01.095Z,-6.20
2022-12-13T15:07:32.304Z,-6.30
2022-12-13T15:10:04.237Z,-6.30
2022-12-13T15:12:32.992Z,-6.30
2022-12-13T15:15:02.976Z,-6.20
2022-12-13T15:17:36.863Z,-6.30
2022-12-13T15:20:23.607Z,-6.30
2022-12-13T15:22:58.682Z,-6.30
2022-12-13T15:25:28.900Z,-6.40
2022-12-13T15:27:57.765Z,-6.30
2022-12-13T15:30:30.509Z,-6.40
2022-12-13T15:33:07.797Z,-6.40
2022-12-13T15:35:37.614Z,-6.50
2022-12-13T15:38:05.844Z,-6.40
2022-12-13T15:40:35.096Z,-6.30
2022-12-13T15:43:04.145Z,-6.30
2022-12-13T15:45:36.944Z,-6.00
2022-12-13T15:48:05.805Z,-5.40
2022-12-13T15:50:35.353Z,-5.10
2022-12-13T15:53:05.549Z,-5.10
2022-12-13T15:55:36.522Z,-5.70
2022-12-13T15:58:04.603Z,-5.00
2022-12-13T16:00:35.654Z,-4.80
2022-12-13T16:03:09.865Z,-5.70
2022-12-13T16:05:41.137Z,-6.00
2022-12-13T16:08:20.254Z,-5.40
2022-12-13T16:10:50.251Z,-5.00
2022-12-13T16:13:26.243Z,-5.10
2022-12-13T16:15:59.730Z,-5.00
2022-12-13T16:18:46.058Z,-4.50
2022-12-13T16:21:14.225Z,-4.40
2022-12-13T16:23:48.094Z,-5.30
2022-12-13T16:26:23.821Z,-4.90
2022-12-13T16:28:52.062Z,-4.90
2022-12-13T16:31:22.305Z,-5.00
2022-12-13T16:33:50.531Z,-5.00
2022-12-13T16:36:18.640Z,-4.80
2022-12-13T16:38:46.614Z,-4.90
2022-12-13T16:41:16.357Z,-4.80
2022-12-13T16:43:52.867Z,-5.60
2022-12-13T16:47:13.210Z,-5.90
2022-12-13T16:49:21.456Z,-5.70
2022-12-13T16:51:49.665Z,-5.90
2022-12-13T16:54:18.947Z,-5.40
2022-12-13T16:56:47.135Z,-5.10
2022-12-13T16:59:18.402Z,-5.30
2022-12-13T17:01:46.882Z,-5.10
2022-12-13T17:04:20.711Z,-5.20
2022-12-13T17:06:49.757Z,-4.70
2022-12-13T17:09:17.722Z,-4.50
2022-12-13T17:11:45.768Z,-4.50
2022-12-13T17:14:13.718Z,-4.50
2022-12-13T17:16:42.973Z,-4.40
2022-12-13T17:19:14.488Z,-4.50
2022-12-13T17:21:42.380Z,-4.60
2022-12-13T17:24:10.212Z,-4.50
2022-12-13T17:26:38.064Z,-4.60
2022-12-13T17:29:05.847Z,-4.70
2022-12-13T17:31:35.960Z,-4.60
2022-12-13T17:34:05.597Z,-4.60
2022-12-13T17:36:33.516Z,-4.50
2022-12-13T17:39:01.884Z,-4.50
2022-12-13T17:41:29.701Z,-5.30
2022-12-13T17:44:00.247Z,-5.90
2022-12-13T17:46:28.103Z,-6.30
2022-12-13T17:48:56.025Z,-6.00
2022-12-13T17:51:25.231Z,-5.80
2022-12-13T17:53:52.967Z,-5.50
2022-12-13T17:56:20.817Z,-4.90
2022-12-13T17:58:48.632Z,-4.90
2022-12-13T18:01:18.524Z,-5.00
2022-12-13T18:03:47.739Z,-5.30
2022-12-13T18:06:16.039Z,-4.90
2022-12-13T18:08:46.611Z,-5.10
2022-12-13T18:11:32.476Z,-4.90
2022-12-13T18:14:02.224Z,-4.70
2022-12-13T18:16:36.404Z,-4.70
2022-12-13T18:19:06.807Z,-4.70
2022-12-13T18:21:35.241Z,-4.60
2022-12-13T18:24:05.123Z,-4.60
2022-12-13T18:26:32.903Z,-4.70
2022-12-13T18:29:00.662Z,-4.60
2022-12-13T18:31:28.496Z,-4.60
2022-12-13T18:33:56.359Z,-4.60
2022-12-13T18:36:26.502Z,-4.70
2022-12-13T18:38:54.315Z,-4.70
2022-12-13T18:41:27.783Z,-4.80
2022-12-13T18:43:59.640Z,-4.60
2022-12-13T18:46:28.412Z,-4.50
2022-12-13T18:48:58.354Z,-4.50
2022-12-13T18:51:27.133Z,-4.60
2022-12-13T18:53:55.988Z,-4.60
2022-12-13T18:56:26.483Z,-4.60
2022-12-13T18:58:54.825Z,-4.70
2022-12-13T19:01:26.672Z,-4.70
2022-12-13T19:03:54.722Z,-4.70
2022-12-13T19:06:24.241Z,-4.60
2022-12-13T19:08:54.423Z,-4.60
2022-12-13T19:11:22.764Z,-4.60
2022-12-13T19:13:51.842Z,-4.60
2022-12-13T19:16:21.612Z,-4.60
2022-12-13T19:18:50.048Z,-4.80
2022-12-13T19:21:20.796Z,-4.80
2022-12-13T19:23:56.483Z,-5.50
2022-12-13T19:26:25.652Z,-4.80
2022-12-13T19:28:56.631Z,-6.10
2022-12-13T19:31:30.526Z,-5.40
2022-12-13T19:34:00.640Z,-5.00
2022-12-13T19:36:28.859Z,-5.60
2022-12-13T19:38:56.937Z,-5.90
2022-12-13T19:41:25.086Z,-5.50
2022-12-13T19:43:54.319Z,-5.10
2022-12-13T19:46:22.399Z,-5.40
2022-12-13T19:48:50.863Z,-5.70
2022-12-13T19:51:18.793Z,-6.10
2022-12-13T19:53:46.588Z,-5.40
2022-12-13T19:56:17.573Z,-5.20
2022-12-13T19:58:46.688Z,-5.50
2022-12-13T20:01:16.921Z,-6.10
2022-12-13T20:03:46.699Z,-5.90
2022-12-13T20:06:17.222Z,-5.80
2022-12-13T20:08:45.795Z,-6.10
2022-12-13T20:11:15.625Z,-5.90
2022-12-13T20:13:43.529Z,-5.50
2022-12-13T20:16:18.374Z,-5.30
2022-12-13T20:18:47.070Z,-5.40
2022-12-13T20:21:15.817Z,-5.40
2022-12-13T20:23:49.049Z,-5.10
2022-12-13T20:26:19.036Z,-5.10
2022-12-13T20:28:46.780Z,-5.50
2022-12-13T20:31:18.883Z,-5.70
2022-12-13T20:33:47.009Z,-5.70
2022-12-13T20:36:25.855Z,-5.80
2022-12-13T20:38:55.665Z,-6.00
2022-12-13T20:41:23.728Z,-5.80
2022-12-13T20:43:53.059Z,-5.50
2022-12-13T20:46:22.815Z,-5.50
2022-12-13T20:48:51.192Z,-5.50
2022-12-13T20:51:21.438Z,-6.00
2022-12-13T20:53:50.817Z,-6.00
2022-12-13T20:56:20.735Z,-5.90
2022-12-13T20:58:48.799Z,-5.50
2022-12-13T21:01:18.444Z,-5.30
2022-12-13T21:03:48.118Z,-5.80
2022-12-13T21:06:16.141Z,-5.90
2022-12-13T21:08:52.722Z,-5.70
2022-12-13T21:11:28.592Z,-5.50
2022-12-13T21:14:03.813Z,-5.20
2022-12-13T21:16:38.752Z,-5.60
2022-12-13T21:19:09.226Z,-6.20
2022-12-13T21:21:37.551Z,-6.10
2022-12-13T21:24:06.568Z,-5.80
2022-12-13T21:26:35.939Z,-6.40
2022-12-13T21:29:06.482Z,-5.50
2022-12-13T21:31:35.302Z,-5.30
2022-12-13T21:34:05.124Z,-5.80
2022-12-13T21:36:36.221Z,-5.70
2022-12-13T21:39:07.013Z,-5.90
2022-12-13T21:41:35.146Z,-5.80
2022-12-13T21:44:02.911Z,-5.60
2022-12-13T21:46:55.132Z,-4.90
2022-12-13T21:49:19.407Z,-4.70
2022-12-13T21:51:48.756Z,-5.00
2022-12-13T21:54:17.726Z,-5.30
2022-12-13T21:57:03.150Z,-5.20
2022-12-13T21:59:31.662Z,-5.20
2022-12-13T22:02:14.520Z,-5.40
2022-12-13T22:04:45.124Z,-5.30
2022-12-13T22:07:16.642Z,-5.40
2022-12-13T22:09:44.695Z,-5.60
2022-12-13T22:12:20.373Z,-5.90
2022-12-13T22:14:48.597Z,-5.90
2022-12-13T22:17:17.001Z,-5.60
2022-12-13T22:19:48.941Z,-5.80
2022-12-13T22:22:19.031Z,-6.10
2022-12-13T22:24:52.981Z,-6.10
2022-12-13T22:27:23.603Z,-5.80
2022-12-13T22:29:51.959Z,-5.70
2022-12-13T22:32:20.059Z,-5.60
2022-12-13T22:34:47.897Z,-5.50
2022-12-13T22:37:16.191Z,-5.90
2022-12-13T22:39:45.407Z,-6.00
2022-12-13T22:42:13.306Z,-6.10
2022-12-13T22:44:41.083Z,-6.00
2022-12-13T22:47:08.892Z,-5.50
2022-12-13T22:49:36.750Z,-5.70
2022-12-13T22:52:05.144Z,-5.90
2022-12-13T22:54:33.012Z,-5.70
2022-12-13T22:57:02.271Z,-6.00
2022-12-13T23:02:12.485Z,-5.20
2022-12-13T23:04:40.401Z,-5.80
2022-12-13T23:07:08.353Z,-5.60
2022-12-13T23:09:36.115Z,-5.50
2022-12-13T23:12:23.322Z,-5.30
2022-12-13T23:14:51.458Z,-5.50
2022-12-13T23:17:19.374Z,-5.80
2022-12-13T23:19:50.662Z,-5.40
2022-12-13T23:22:21.443Z,-5.50
2022-12-13T23:24:49.877Z,-5.80
2022-12-13T23:27:19.604Z,-5.90
2022-12-13T23:29:47.394Z,-5.80
2022-12-13T23:32:15.353Z,-5.50
2022-12-13T23:34:43.204Z,-5.50
2022-12-13T23:37:11.030Z,-5.50
2022-12-13T23:39:38.839Z,-5.60
2022-12-13T23:42:07.146Z,-5.50
2022-12-13T23:44:36.569Z,-5.50
2022-12-13T23:47:04.312Z,-5.20
2022-12-13T23:49:32.261Z,-5.50
2022-12-13T23:52:00.091Z,-5.20
2022-12-13T23:54:27.859Z,-5.30
2022-12-13T23:56:55.709Z,-5.00
2022-12-13T23:59:25.723Z,-5.20
